sensor_id;sensor_type;location;lat;lon;timestamp;pressure;altitude;pressure_sealevel;temperature;humidity
58775;BME280;44545;47.480;19.024;2023-02-20T03:50:12;101026.34;;;2.14;92.02
58775;BME280;44545;47.480;19.024;2023-02-20T03:53:16;101026.34;;;2.14;92.02
58775;BME280;44545;47.480;19.024;2023-02-20T04:00:15;101033.59;;;1.58;93.63
58775;BME280;44545;47.480;19.024;2023-02-20T04:03:24;101030.91;;;1.65;93.19
58775;BME280;44545;47.480;19.024;2023-02-20T04:06:29;101026.19;;;1.69;92.56
58775;BME280;44545;47.480;19.024;2023-02-20T04:09:33;101020.91;;;1.68;93.17
58775;BME280;44545;47.480;19.024;2023-02-20T04:12:41;101011.09;;;1.72;92.30
58775;BME280;44545;47.480;19.024;2023-02-20T04:15:47;101014.56;;;1.82;91.70
58775;BME280;44545;47.480;19.024;2023-02-20T04:18:51;101017.28;;;1.92;90.45
58775;BME280;44545;47.480;19.024;2023-02-20T04:21:57;101009.87;;;1.78;92.37
58775;BME280;44545;47.480;19.024;2023-02-20T04:25:06;101011.22;;;1.74;91.24
58775;BME280;44545;47.480;19.024;2023-02-20T04:28:13;101013.94;;;1.84;90.92
58775;BME280;44545;47.480;19.024;2023-02-20T04:31:17;101017.28;;;2.01;89.62
58775;BME280;44545;47.480;19.024;2023-02-20T04:34:21;101025.47;;;2.05;89.99
58775;BME280;44545;47.480;19.024;2023-02-20T04:37:24;101033.47;;;2.00;89.92
58775;BME280;44545;47.480;19.024;2023-02-20T04:40:26;101043.16;;;1.93;90.54
58775;BME280;44545;47.480;19.024;2023-02-20T04:43:29;101038.78;;;1.92;90.31
58775;BME280;44545;47.480;19.024;2023-02-20T04:46:31;101035.88;;;1.89;91.16
58775;BME280;44545;47.480;19.024;2023-02-20T04:49:34;101027.25;;;1.89;90.22
58775;BME280;44545;47.480;19.024;2023-02-20T04:52:37;101012.72;;;1.89;90.45
58775;BME280;44545;47.480;19.024;2023-02-20T04:55:40;100992.00;;;1.97;90.81
58775;BME280;44545;47.480;19.024;2023-02-20T04:58:46;100987.28;;;2.10;89.01
58775;BME280;44545;47.480;19.024;2023-02-20T05:01:51;100994.28;;;2.11;88.18
58775;BME280;44545;47.480;19.024;2023-02-20T05:04:56;100980.16;;;2.25;88.06
58775;BME280;44545;47.480;19.024;2023-02-20T05:08:00;100988.91;;;2.35;87.15
58775;BME280;44545;47.480;19.024;2023-02-20T05:11:04;100997.56;;;2.36;86.48
58775;BME280;44545;47.480;19.024;2023-02-20T05:14:06;100997.56;;;2.36;87.31
58775;BME280;44545;47.480;19.024;2023-02-20T05:17:08;100998.12;;;2.42;87.09
58775;BME280;44545;47.480;19.024;2023-02-20T05:20:11;101004.78;;;2.49;86.67
58775;BME280;44545;47.480;19.024;2023-02-20T05:23:14;101004.59;;;2.65;86.72
58775;BME280;44545;47.480;19.024;2023-02-20T05:26:18;101010.50;;;2.55;86.10
58775;BME280;44545;47.480;19.024;2023-02-20T05:29:21;101006.31;;;2.47;86.63
58775;BME280;44545;47.480;19.024;2023-02-20T05:32:28;101013.25;;;2.48;87.07
58775;BME280;44545;47.480;19.024;2023-02-20T05:35:30;101018.88;;;2.44;87.28
58775;BME280;44545;47.480;19.024;2023-02-20T05:38:33;101019.94;;;2.46;87.70
58775;BME280;44545;47.480;19.024;2023-02-20T05:41:36;101018.72;;;2.42;88.65
58775;BME280;44545;47.480;19.024;2023-02-20T05:44:38;101022.94;;;2.50;87.96
58775;BME280;44545;47.480;19.024;2023-02-20T05:47:41;101017.75;;;2.68;87.07
58775;BME280;44545;47.480;19.024;2023-02-20T05:50:43;101017.44;;;2.65;86.48
58775;BME280;44545;47.480;19.024;2023-02-20T05:53:51;101018.12;;;2.81;86.13
58775;BME280;44545;47.480;19.024;2023-02-20T05:56:54;101028.31;;;2.79;85.23
58775;BME280;44545;47.480;19.024;2023-02-20T05:59:56;101031.34;;;2.75;84.99
58775;BME280;44545;47.480;19.024;2023-02-20T06:02:58;101029.38;;;2.81;84.73
58775;BME280;44545;47.480;19.024;2023-02-20T06:06:03;101034.91;;;2.95;85.05
58775;BME280;44545;47.480;19.024;2023-02-20T06:09:10;101041.31;;;2.90;84.15
58775;BME280;44545;47.480;19.024;2023-02-20T06:12:13;101043.31;;;3.11;83.66
58775;BME280;44545;47.480;19.024;2023-02-20T06:15:15;101045.62;;;3.08;83.81
58775;BME280;44545;47.480;19.024;2023-02-20T06:18:18;101063.47;;;3.15;84.52
58775;BME280;44545;47.480;19.024;2023-02-20T06:21:21;101072.09;;;3.24;83.33
58775;BME280;44545;47.480;19.024;2023-02-20T06:24:24;101062.94;;;3.37;83.70
58775;BME280;44545;47.480;19.024;2023-02-20T06:27:27;101061.69;;;3.42;82.08
58775;BME280;44545;47.480;19.024;2023-02-20T06:30:29;101052.62;;;3.37;82.60
58775;BME280;44545;47.480;19.024;2023-02-20T06:33:32;101050.44;;;3.41;81.66
58775;BME280;44545;47.480;19.024;2023-02-20T06:36:38;101059.19;;;3.52;81.97
58775;BME280;44545;47.480;19.024;2023-02-20T06:39:41;101055.81;;;3.81;80.50
58775;BME280;44545;47.480;19.024;2023-02-20T06:42:46;101053.28;;;3.72;80.03
58775;BME280;44545;47.480;19.024;2023-02-20T06:45:49;101063.47;;;3.89;78.49
58775;BME280;44545;47.480;19.024;2023-02-20T06:48:54;101057.69;;;3.92;79.46
58775;BME280;44545;47.480;19.024;2023-02-20T06:51:56;101054.91;;;3.99;78.55
58775;BME280;44545;47.480;19.024;2023-02-20T06:54:59;101063.69;;;4.01;78.40
58775;BME280;44545;47.480;19.024;2023-02-20T06:58:01;101047.44;;;4.02;77.99
58775;BME280;44545;47.480;19.024;2023-02-20T07:01:04;101049.94;;;4.11;78.66
58775;BME280;44545;47.480;19.024;2023-02-20T07:04:13;101048.34;;;4.22;82.27
58775;BME280;44545;47.480;19.024;2023-02-20T07:07:17;101055.22;;;4.31;77.15
58775;BME280;44545;47.480;19.024;2023-02-20T07:10:20;101070.63;;;4.40;80.00
58775;BME280;44545;47.480;19.024;2023-02-20T07:13:23;101056.84;;;4.21;84.34
58775;BME280;44545;47.480;19.024;2023-02-20T07:16:25;101056.12;;;4.32;80.23
58775;BME280;44545;47.480;19.024;2023-02-20T07:19:28;101051.13;;;4.33;82.00
58775;BME280;44545;47.480;19.024;2023-02-20T07:22:30;101058.66;;;4.41;80.93
58775;BME280;44545;47.480;19.024;2023-02-20T07:25:33;101052.34;;;4.47;76.27
58775;BME280;44545;47.480;19.024;2023-02-20T07:28:35;101047.06;;;4.46;75.24
58775;BME280;44545;47.480;19.024;2023-02-20T07:31:37;101045.06;;;4.33;75.40
58775;BME280;44545;47.480;19.024;2023-02-20T07:34:40;101042.16;;;4.30;76.78
58775;BME280;44545;47.480;19.024;2023-02-20T07:37:55;101044.84;;;4.50;76.22
58775;BME280;44545;47.480;19.024;2023-02-20T07:40:58;101049.09;;;4.69;75.15
58775;BME280;44545;47.480;19.024;2023-02-20T07:44:00;101043.47;;;5.04;74.31
58775;BME280;44545;47.480;19.024;2023-02-20T07:47:03;101047.91;;;5.15;74.06
58775;BME280;44545;47.480;19.024;2023-02-20T07:50:05;101043.69;;;5.46;74.18
58775;BME280;44545;47.480;19.024;2023-02-20T07:53:12;101055.47;;;5.83;73.83
58775;BME280;44545;47.480;19.024;2023-02-20T07:56:15;101041.22;;;6.09;72.88
58775;BME280;44545;47.480;19.024;2023-02-20T07:59:18;101045.66;;;6.42;72.22
58775;BME280;44545;47.480;19.024;2023-02-20T08:02:21;101039.34;;;6.71;70.51
58775;BME280;44545;47.480;19.024;2023-02-20T08:05:24;101035.88;;;6.60;70.13
58775;BME280;44545;47.480;19.024;2023-02-20T08:08:27;101036.00;;;6.29;73.49
58775;BME280;44545;47.480;19.024;2023-02-20T08:11:33;101040.50;;;6.75;73.21
58775;BME280;44545;47.480;19.024;2023-02-20T08:14:36;101040.06;;;6.80;72.29
58775;BME280;44545;47.480;19.024;2023-02-20T08:17:39;101035.06;;;6.71;71.62
58775;BME280;44545;47.480;19.024;2023-02-20T08:20:48;101045.81;;;6.66;71.51
58775;BME280;44545;47.480;19.024;2023-02-20T08:23:52;101048.38;;;6.44;73.99
58775;BME280;44545;47.480;19.024;2023-02-20T08:26:55;101043.78;;;6.19;77.59
58775;BME280;44545;47.480;19.024;2023-02-20T08:30:00;101041.34;;;6.21;81.81
58775;BME280;44545;47.480;19.024;2023-02-20T08:33:02;101041.34;;;6.53;80.32
58775;BME280;44545;47.480;19.024;2023-02-20T08:36:08;101036.63;;;6.69;80.13
58775;BME280;44545;47.480;19.024;2023-02-20T08:39:10;101017.94;;;7.18;77.25
58775;BME280;44545;47.480;19.024;2023-02-20T08:42:16;101011.09;;;7.64;74.82
58775;BME280;44545;47.480;19.024;2023-02-20T08:45:18;101019.84;;;7.99;73.83
58775;BME280;44545;47.480;19.024;2023-02-20T08:48:21;101020.37;;;8.89;72.28
58775;BME280;44545;47.480;19.024;2023-02-20T08:51:24;101013.97;;;9.09;71.83
58775;BME280;44545;47.480;19.024;2023-02-20T08:54:27;101024.66;;;9.64;69.53
58775;BME280;44545;47.480;19.024;2023-02-20T08:57:29;101017.19;;;9.19;69.87
58775;BME280;44545;47.480;19.024;2023-02-20T09:00:32;101004.81;;;9.03;72.75
58775;BME280;44545;47.480;19.024;2023-02-20T09:03:35;101009.09;;;8.65;74.66
58775;BME280;44545;47.480;19.024;2023-02-20T09:06:43;101013.19;;;8.27;75.89
58775;BME280;44545;47.480;19.024;2023-02-20T09:09:45;101006.66;;;8.08;76.80
58775;BME280;44545;47.480;19.024;2023-02-20T09:12:48;101003.69;;;8.51;76.37
58775;BME280;44545;47.480;19.024;2023-02-20T09:15:50;100997.16;;;8.93;74.02
58775;BME280;44545;47.480;19.024;2023-02-20T09:18:52;100987.06;;;9.09;73.55
58775;BME280;44545;47.480;19.024;2023-02-20T09:21:59;100995.44;;;9.30;74.17
58775;BME280;44545;47.480;19.024;2023-02-20T09:25:02;100989.91;;;9.50;72.05
58775;BME280;44545;47.480;19.024;2023-02-20T09:28:04;100987.47;;;9.40;72.60
58775;BME280;44545;47.480;19.024;2023-02-20T09:31:06;100992.69;;;8.78;74.98
58775;BME280;44545;47.480;19.024;2023-02-20T09:34:09;100989.94;;;8.52;75.95
58775;BME280;44545;47.480;19.024;2023-02-20T09:37:11;100996.25;;;8.32;76.94
58775;BME280;44545;47.480;19.024;2023-02-20T09:40:15;100985.22;;;9.08;74.49
58775;BME280;44545;47.480;19.024;2023-02-20T09:47:06;100991.09;;;9.94;69.04
58775;BME280;44545;47.480;19.024;2023-02-20T09:50:31;100988.31;;;9.27;72.79
58775;BME280;44545;47.480;19.024;2023-02-20T09:56:48;100991.38;;;8.36;76.49
58775;BME280;44545;47.480;19.024;2023-02-20T10:00:02;100977.97;;;8.18;77.59
58775;BME280;44545;47.480;19.024;2023-02-20T10:03:26;100968.34;;;8.29;77.72
58775;BME280;44545;47.480;19.024;2023-02-20T10:06:34;100954.22;;;8.61;77.43
58775;BME280;44545;47.480;19.024;2023-02-20T10:09:37;100934.94;;;9.21;74.74
58775;BME280;44545;47.480;19.024;2023-02-20T10:12:44;100937.78;;;9.75;72.87
58775;BME280;44545;47.480;19.024;2023-02-20T10:16:46;100939.97;;;10.23;69.20
58775;BME280;44545;47.480;19.024;2023-02-20T10:19:44;100933.38;;;9.88;70.95
58775;BME280;44545;47.480;19.024;2023-02-20T10:26:33;100931.09;;;10.60;69.47
58775;BME280;44545;47.480;19.024;2023-02-20T10:29:39;100906.88;;;11.34;66.55
58775;BME280;44545;47.480;19.024;2023-02-20T10:32:54;100909.06;;;11.71;63.71
58775;BME280;44545;47.480;19.024;2023-02-20T10:36:09;100908.06;;;11.24;65.30
58775;BME280;44545;47.480;19.024;2023-02-20T10:39:18;100897.78;;;11.13;65.87
58775;BME280;44545;47.480;19.024;2023-02-20T10:42:29;100904.94;;;10.87;67.57
58775;BME280;44545;47.480;19.024;2023-02-20T10:49:06;100889.88;;;11.26;65.28
58775;BME280;44545;47.480;19.024;2023-02-20T10:52:16;100877.47;;;11.22;65.45
58775;BME280;44545;47.480;19.024;2023-02-20T10:58:51;100871.25;;;11.49;64.92
58775;BME280;44545;47.480;19.024;2023-02-20T11:01:56;100856.03;;;11.13;65.71
58775;BME280;44545;47.480;19.024;2023-02-20T11:05:04;100862.88;;;11.55;65.41
58775;BME280;44545;47.480;19.024;2023-02-20T11:08:08;100860.00;;;11.50;64.50
58775;BME280;44545;47.480;19.024;2023-02-20T11:11:21;100851.66;;;10.69;67.17
58775;BME280;44545;47.480;19.024;2023-02-20T11:14:33;100848.28;;;11.29;67.19
58775;BME280;44545;47.480;19.024;2023-02-20T11:17:43;100833.00;;;12.44;61.38
58775;BME280;44545;47.480;19.024;2023-02-20T11:20:46;100824.13;;;14.52;55.27
58775;BME280;44545;47.480;19.024;2023-02-20T11:23:50;100810.19;;;15.34;52.75
58775;BME280;44545;47.480;19.024;2023-02-20T11:27:16;100792.28;;;15.67;51.09
58775;BME280;44545;47.480;19.024;2023-02-20T11:33:29;100795.94;;;14.28;54.32
58775;BME280;44545;47.480;19.024;2023-02-20T11:36:47;100785.91;;;14.20;54.44
58775;BME280;44545;47.480;19.024;2023-02-20T11:39:50;100784.69;;;14.31;54.28
58775;BME280;44545;47.480;19.024;2023-02-20T11:42:53;100787.53;;;13.43;55.28
58775;BME280;44545;47.480;19.024;2023-02-20T11:49:11;100773.97;;;13.34;56.00
58775;BME280;44545;47.480;19.024;2023-02-20T11:52:23;100758.41;;;13.92;55.22
58775;BME280;44545;47.480;19.024;2023-02-20T11:55:26;100752.78;;;14.02;55.00
58775;BME280;44545;47.480;19.024;2023-02-20T11:58:30;100747.62;;;14.23;54.81
58775;BME280;44545;47.480;19.024;2023-02-20T12:01:34;100745.66;;;15.41;51.57
58775;BME280;44545;47.480;19.024;2023-02-20T12:04:39;100729.81;;;16.53;48.09
58775;BME280;44545;47.480;19.024;2023-02-20T12:07:56;100713.59;;;20.09;40.08
58775;BME280;44545;47.480;19.024;2023-02-20T12:11:04;100698.59;;;20.10;38.46
58775;BME280;44545;47.480;19.024;2023-02-20T12:14:12;100680.28;;;22.49;33.09
58775;BME280;44545;47.480;19.024;2023-02-20T12:20:36;100677.97;;;19.95;36.81
58775;BME280;44545;47.480;19.024;2023-02-20T12:50:41;100673.97;;;13.99;51.79
58775;BME280;44545;47.480;19.024;2023-02-20T12:54:12;100672.59;;;13.69;52.66
58775;BME280;44545;47.480;19.024;2023-02-20T13:00:52;100687.41;;;13.68;53.26
58775;BME280;44545;47.480;19.024;2023-02-20T13:07:14;100659.25;;;13.64;53.84
58775;BME280;44545;47.480;19.024;2023-02-20T13:10:32;100666.72;;;13.55;54.71
58775;BME280;44545;47.480;19.024;2023-02-20T13:13:44;100652.28;;;13.64;54.52
58775;BME280;44545;47.480;19.024;2023-02-20T13:29:39;100643.59;;;13.46;53.12
58775;BME280;44545;47.480;19.024;2023-02-20T13:33:21;100646.38;;;13.69;52.79
58775;BME280;44545;47.480;19.024;2023-02-20T13:36:38;100636.59;;;13.84;52.35
58775;BME280;44545;47.480;19.024;2023-02-20T13:39:40;100634.69;;;13.62;51.75
58775;BME280;44545;47.480;19.024;2023-02-20T13:42:43;100639.72;;;13.38;52.57
58775;BME280;44545;47.480;19.024;2023-02-20T13:45:47;100628.19;;;13.16;51.81
58775;BME280;44545;47.480;19.024;2023-02-20T13:48:52;100625.19;;;13.27;51.92
58775;BME280;44545;47.480;19.024;2023-02-20T13:51:54;100618.66;;;13.74;52.14
58775;BME280;44545;47.480;19.024;2023-02-20T13:58:14;100619.22;;;13.29;51.02
58775;BME280;44545;47.480;19.024;2023-02-20T14:01:17;100602.91;;;13.54;50.80
58775;BME280;44545;47.480;19.024;2023-02-20T14:04:20;100583.97;;;13.22;51.06
58775;BME280;44545;47.480;19.024;2023-02-20T14:07:53;100568.66;;;13.12;51.90
58775;BME280;44545;47.480;19.024;2023-02-20T14:11:25;100567.94;;;12.79;51.57
58775;BME280;44545;47.480;19.024;2023-02-20T14:14:34;100575.19;;;12.49;52.79
58775;BME280;44545;47.480;19.024;2023-02-20T14:17:41;100578.03;;;12.53;52.95
58775;BME280;44545;47.480;19.024;2023-02-20T14:20:43;100591.69;;;12.66;52.41
58775;BME280;44545;47.480;19.024;2023-02-20T14:23:47;100590.91;;;12.85;53.04
58775;BME280;44545;47.480;19.024;2023-02-20T14:26:50;100592.41;;;12.79;52.00
58775;BME280;44545;47.480;19.024;2023-02-20T14:30:14;100570.62;;;12.80;52.66
58775;BME280;44545;47.480;19.024;2023-02-20T14:33:25;100558.06;;;12.73;52.94
58775;BME280;44545;47.480;19.024;2023-02-20T14:39:46;100563.31;;;12.91;52.06
58775;BME280;44545;47.480;19.024;2023-02-20T14:42:50;100546.66;;;13.09;51.76
58775;BME280;44545;47.480;19.024;2023-02-20T14:46:07;100553.06;;;13.15;51.61
58775;BME280;44545;47.480;19.024;2023-02-20T14:49:15;100536.47;;;13.15;51.86
58775;BME280;44545;47.480;19.024;2023-02-20T14:52:21;100548.13;;;13.21;51.34
58775;BME280;44545;47.480;19.024;2023-02-20T14:55:24;100533.78;;;13.13;51.37
58775;BME280;44545;47.480;19.024;2023-02-20T14:58:35;100547.53;;;12.90;51.93
58775;BME280;44545;47.480;19.024;2023-02-20T15:01:42;100540.81;;;12.59;52.42
58775;BME280;44545;47.480;19.024;2023-02-20T15:04:52;100533.75;;;12.22;55.93
58775;BME280;44545;47.480;19.024;2023-02-20T15:08:22;100532.50;;;12.14;57.95
58775;BME280;44545;47.480;19.024;2023-02-20T15:11:26;100536.06;;;11.98;59.04
58775;BME280;44545;47.480;19.024;2023-02-20T15:14:31;100542.03;;;11.96;59.75
58775;BME280;44545;47.480;19.024;2023-02-20T15:17:35;100536.31;;;11.70;61.20
58775;BME280;44545;47.480;19.024;2023-02-20T15:20:41;100521.97;;;11.45;62.39
58775;BME280;44545;47.480;19.024;2023-02-20T15:23:44;100526.69;;;11.36;63.41
58775;BME280;44545;47.480;19.024;2023-02-20T15:26:47;100529.88;;;11.31;63.57
58775;BME280;44545;47.480;19.024;2023-02-20T15:30:10;100526.59;;;11.18;63.90
58775;BME280;44545;47.480;19.024;2023-02-20T15:33:13;100522.59;;;11.09;64.93
58775;BME280;44545;47.480;19.024;2023-02-20T15:36:19;100528.53;;;10.90;66.21
58775;BME280;44545;47.480;19.024;2023-02-20T15:39:22;100520.03;;;10.77;67.21
58775;BME280;44545;47.480;19.024;2023-02-20T15:42:25;100501.19;;;10.67;67.74
58775;BME280;44545;47.480;19.024;2023-02-20T15:45:29;100503.62;;;10.63;67.85
58775;BME280;44545;47.480;19.024;2023-02-20T15:48:31;100499.62;;;10.39;69.05
58775;BME280;44545;47.480;19.024;2023-02-20T15:51:37;100499.78;;;10.12;71.10
58775;BME280;44545;47.480;19.024;2023-02-20T15:54:40;100498.00;;;9.96;72.42
58775;BME280;44545;47.480;19.024;2023-02-20T15:57:44;100486.53;;;9.93;72.83
58775;BME280;44545;47.480;19.024;2023-02-20T16:00:46;100484.72;;;9.92;73.26
58775;BME280;44545;47.480;19.024;2023-02-20T16:03:51;100473.41;;;9.76;74.62
58775;BME280;44545;47.480;19.024;2023-02-20T16:06:54;100481.13;;;9.60;76.06
58775;BME280;44545;47.480;19.024;2023-02-20T16:09:57;100462.97;;;9.47;77.33
58775;BME280;44545;47.480;19.024;2023-02-20T16:12:59;100460.72;;;9.38;78.11
58775;BME280;44545;47.480;19.024;2023-02-20T16:16:17;100452.62;;;9.33;78.70
58775;BME280;44545;47.480;19.024;2023-02-20T16:19:26;100448.50;;;9.22;79.77
58775;BME280;44545;47.480;19.024;2023-02-20T16:22:43;100447.37;;;9.19;80.14
